createdAt,value
2018-12-16T00:00:28.792Z,35.95
2018-12-16T00:01:04.150Z,38.88
2018-12-16T00:01:39.830Z,39.08
2018-12-16T00:02:15.180Z,39.18
2018-12-16T00:02:50.548Z,37.78
2018-12-16T00:03:25.886Z,34.15
2018-12-16T00:04:01.218Z,32.67
2018-12-16T00:04:36.944Z,36.38
2018-12-16T00:05:12.428Z,32.53
2018-12-16T00:05:45.767Z,29.60
2018-12-16T00:06:19.161Z,38.95
2018-12-16T00:06:52.498Z,30.62
2018-12-16T00:07:25.816Z,42.08
2018-12-16T00:07:59.154Z,40.17
2018-12-16T00:08:32.480Z,32.60
2018-12-16T00:09:06.621Z,35.52
2018-12-16T00:09:41.042Z,43.92
2018-12-16T00:10:14.351Z,35.48
2018-12-16T00:10:47.652Z,32.20
2018-12-16T00:11:20.967Z,46.53
2018-12-16T00:11:54.254Z,30.48
2018-12-16T00:12:27.578Z,37.10
2018-12-16T00:13:00.995Z,36.55
2018-12-16T00:13:34.315Z,32.10
2018-12-16T00:14:07.673Z,33.28
2018-12-16T00:14:41.512Z,39.75
2018-12-16T00:15:14.995Z,42.80
2018-12-16T00:15:48.386Z,45.63
2018-12-16T00:16:21.744Z,43.75
2018-12-16T00:16:55.089Z,42.03
2018-12-16T00:17:28.441Z,34.83
2018-12-16T00:18:01.761Z,41.15
2018-12-16T00:18:35.563Z,46.68
2018-12-16T00:19:08.914Z,35.98
2018-12-16T00:19:42.222Z,38.78
2018-12-16T00:20:15.605Z,41.70
2018-12-16T00:20:48.938Z,45.08
2018-12-16T00:21:22.420Z,37.93
2018-12-16T00:21:55.742Z,39.90
2018-12-16T00:22:29.944Z,46.20
2018-12-16T00:23:03.745Z,39.80
2018-12-16T00:23:38.198Z,43.65
2018-12-16T00:24:11.624Z,32.00
2018-12-16T00:24:44.962Z,37.20
2018-12-16T00:25:18.298Z,34.98
2018-12-16T00:25:51.664Z,32.38
2018-12-16T00:27:08.461Z,38.17
2018-12-16T00:27:41.750Z,37.93
2018-12-16T00:28:15.065Z,34.15
2018-12-16T00:28:48.375Z,32.58
2018-12-16T00:29:21.670Z,38.98
2018-12-16T00:29:54.974Z,41.08
2018-12-16T00:30:28.328Z,36.93
2018-12-16T00:31:01.753Z,39.03
2018-12-16T00:31:35.078Z,42.80
2018-12-16T00:32:08.514Z,43.17
2018-12-16T00:32:42.081Z,40.78
2018-12-16T00:33:15.427Z,34.13
2018-12-16T00:33:48.745Z,43.85
2018-12-16T00:34:22.077Z,38.55
2018-12-16T00:34:55.391Z,43.23
2018-12-16T00:35:28.711Z,41.02
2018-12-16T00:36:02.047Z,43.45
2018-12-16T00:36:36.869Z,39.35
2018-12-16T00:37:10.225Z,41.33
2018-12-16T00:37:43.602Z,38.48
2018-12-16T00:38:17.157Z,39.92
2018-12-16T00:38:50.452Z,44.30
2018-12-16T00:39:23.857Z,43.20
2018-12-16T00:39:57.264Z,37.15
2018-12-16T00:40:30.607Z,40.12
2018-12-16T00:41:04.038Z,41.83
2018-12-16T00:41:37.404Z,41.25
2018-12-16T00:42:10.715Z,42.78
2018-12-16T00:42:44.093Z,39.27
2018-12-16T00:43:17.421Z,39.03
2018-12-16T00:43:50.765Z,42.15
2018-12-16T00:44:24.095Z,43.63
2018-12-16T00:44:57.508Z,42.70
2018-12-16T00:45:30.807Z,45.25
2018-12-16T00:46:04.280Z,42.88
2018-12-16T00:46:37.631Z,37.45
2018-12-16T00:47:11.031Z,37.50
2018-12-16T00:47:44.344Z,44.33
2018-12-16T00:48:17.703Z,37.50
2018-12-16T00:48:51.021Z,36.83
2018-12-16T00:49:24.379Z,35.40
2018-12-16T00:49:57.689Z,41.68
2018-12-16T00:50:31.031Z,46.10
2018-12-16T00:51:04.346Z,38.42
2018-12-16T00:51:37.931Z,42.48
2018-12-16T00:52:11.261Z,42.58
2018-12-16T00:52:44.633Z,44.88
2018-12-16T00:53:18.299Z,44.58
2018-12-16T00:53:51.633Z,44.60
2018-12-16T00:54:25.053Z,41.98
2018-12-16T00:54:58.411Z,38.35
2018-12-16T00:55:31.734Z,35.80
2018-12-16T00:56:05.057Z,39.85
2018-12-16T00:56:39.517Z,40.95
2018-12-16T00:57:12.978Z,36.25
2018-12-16T00:57:46.338Z,33.80
2018-12-16T00:58:19.649Z,35.45
2018-12-16T00:58:52.941Z,40.98
2018-12-16T00:59:26.297Z,39.70
2018-12-16T00:59:59.601Z,37.20
2018-12-16T01:00:33.479Z,35.58
2018-12-16T01:01:06.837Z,33.55
2018-12-16T01:01:41.272Z,42.45
2018-12-16T01:02:20.450Z,41.55
2018-12-16T01:02:53.919Z,43.30
2018-12-16T01:03:27.225Z,32.08
2018-12-16T01:04:00.675Z,43.68
2018-12-16T01:04:34.109Z,33.92
2018-12-16T01:05:07.689Z,41.63
2018-12-16T01:05:40.993Z,41.05
2018-12-16T01:06:14.304Z,39.53
2018-12-16T01:06:47.631Z,39.18
2018-12-16T01:07:20.961Z,41.60
2018-12-16T01:07:54.343Z,45.73
2018-12-16T01:08:27.737Z,38.28
2018-12-16T01:09:01.309Z,42.35
2018-12-16T01:09:34.664Z,43.55
2018-12-16T01:10:09.790Z,38.13
2018-12-16T01:10:43.273Z,44.50
2018-12-16T01:11:16.639Z,40.15
2018-12-16T01:11:50.064Z,40.23
2018-12-16T01:12:23.480Z,40.23
2018-12-16T01:12:56.804Z,39.48
2018-12-16T01:13:30.228Z,38.13
2018-12-16T01:14:03.681Z,45.55
2018-12-16T01:14:37.149Z,39.03
2018-12-16T01:15:10.715Z,36.73
2018-12-16T01:15:44.163Z,42.25
2018-12-16T01:16:17.639Z,45.08
2018-12-16T01:16:50.971Z,41.68
2018-12-16T01:17:24.352Z,46.02
2018-12-16T01:17:57.807Z,42.03
2018-12-16T01:18:31.234Z,42.10
2018-12-16T01:19:04.543Z,37.70
2018-12-16T01:19:37.937Z,35.75
2018-12-16T01:20:11.525Z,33.20
2018-12-16T01:20:44.917Z,41.23
2018-12-16T01:21:18.214Z,37.08
2018-12-16T01:21:51.583Z,45.80
2018-12-16T01:22:24.926Z,43.63
2018-12-16T01:22:58.251Z,44.55
2018-12-16T01:23:31.538Z,47.27
2018-12-16T01:24:04.871Z,37.03
2018-12-16T01:24:38.219Z,41.63
2018-12-16T01:25:11.695Z,41.13
2018-12-16T01:25:45.002Z,46.05
2018-12-16T01:26:18.355Z,32.73
2018-12-16T01:26:51.977Z,41.25
2018-12-16T01:27:25.463Z,43.90
2018-12-16T01:27:58.819Z,43.83
2018-12-16T01:28:32.161Z,45.63
2018-12-16T01:29:05.625Z,43.75
2018-12-16T01:29:39.337Z,48.48
2018-12-16T01:30:12.791Z,39.58
2018-12-16T01:30:46.115Z,40.70
2018-12-16T01:31:19.434Z,40.25
2018-12-16T01:31:52.795Z,42.67
2018-12-16T01:32:26.090Z,41.75
2018-12-16T01:32:59.443Z,40.50
2018-12-16T01:33:32.779Z,35.05
2018-12-16T01:34:06.076Z,38.88
2018-12-16T01:34:39.738Z,46.35
2018-12-16T01:35:13.063Z,44.30
2018-12-16T01:35:46.480Z,39.08
2018-12-16T01:36:19.782Z,44.42
2018-12-16T01:36:53.235Z,39.85
2018-12-16T01:37:26.581Z,43.42
2018-12-16T01:37:59.889Z,42.67
2018-12-16T01:38:33.327Z,33.42
2018-12-16T01:39:07.335Z,39.60
2018-12-16T01:39:41.768Z,44.08
2018-12-16T01:40:15.112Z,40.85
2018-12-16T01:40:48.461Z,42.95
2018-12-16T01:41:21.809Z,40.95
2018-12-16T01:41:55.145Z,45.03
2018-12-16T01:42:28.468Z,49.13
2018-12-16T01:43:01.813Z,44.55
2018-12-16T01:43:35.161Z,43.80
2018-12-16T01:44:08.467Z,44.63
2018-12-16T01:44:42.148Z,45.40
2018-12-16T01:45:15.473Z,43.10
2018-12-16T01:45:48.819Z,43.00
2018-12-16T01:46:22.213Z,48.10
2018-12-16T01:46:55.567Z,43.70
2018-12-16T01:47:28.913Z,43.95
2018-12-16T01:48:02.267Z,42.65
2018-12-16T01:48:35.747Z,46.15
2018-12-16T01:49:09.161Z,40.28
2018-12-16T01:49:42.551Z,42.65
2018-12-16T01:50:15.951Z,47.75
2018-12-16T01:50:49.305Z,45.30
2018-12-16T01:51:22.768Z,43.13
2018-12-16T01:51:56.191Z,46.65
2018-12-16T01:52:29.579Z,47.60
2018-12-16T01:53:02.962Z,48.42
2018-12-16T01:53:36.409Z,47.67
2018-12-16T01:54:09.725Z,44.53
2018-12-16T01:54:43.085Z,36.83
2018-12-16T01:55:16.543Z,40.60
2018-12-16T01:55:49.918Z,43.40
2018-12-16T01:56:23.277Z,40.03
2018-12-16T01:56:56.565Z,45.98
2018-12-16T01:57:29.913Z,43.45
2018-12-16T01:58:03.427Z,42.98
2018-12-16T01:58:36.737Z,39.00
2018-12-16T01:59:10.091Z,45.65
2018-12-16T01:59:43.535Z,44.18
2018-12-16T02:00:17.089Z,42.17
2018-12-16T02:00:50.511Z,40.00
2018-12-16T02:01:23.983Z,43.85
2018-12-16T02:01:57.418Z,49.00
2018-12-16T02:02:30.765Z,37.00
2018-12-16T02:03:04.242Z,46.88
2018-12-16T02:03:37.589Z,45.35
2018-12-16T02:04:10.991Z,47.43
2018-12-16T02:04:44.579Z,45.67
2018-12-16T02:05:18.011Z,45.30
2018-12-16T02:05:51.383Z,42.73
2018-12-16T02:06:24.707Z,44.98
2018-12-16T02:06:58.026Z,46.92
2018-12-16T02:07:31.357Z,33.63
2018-12-16T02:08:04.687Z,42.23
2018-12-16T02:08:38.251Z,47.00
2018-12-16T02:09:12.194Z,43.98
2018-12-16T02:09:45.535Z,40.58
2018-12-16T02:10:18.950Z,40.28
2018-12-16T02:10:52.325Z,48.70
2018-12-16T02:11:25.630Z,45.73
2018-12-16T02:11:59.049Z,43.23
2018-12-16T02:12:32.405Z,44.42
2018-12-16T02:13:05.857Z,45.95
2018-12-16T02:13:39.198Z,41.13
2018-12-16T02:14:12.570Z,45.52
2018-12-16T02:14:45.943Z,38.63
2018-12-16T02:15:19.263Z,44.20
2018-12-16T02:15:52.661Z,38.92
2018-12-16T02:16:26.073Z,40.58
2018-12-16T02:16:59.387Z,41.95
2018-12-16T02:17:32.713Z,40.45
2018-12-16T02:18:06.028Z,43.60
2018-12-16T02:18:39.448Z,50.35
2018-12-16T02:19:12.751Z,48.40
2018-12-16T02:19:46.095Z,45.92
2018-12-16T02:20:19.418Z,38.23
2018-12-16T02:20:52.849Z,45.48
2018-12-16T02:21:26.180Z,41.15
2018-12-16T02:21:59.641Z,41.75
2018-12-16T02:22:33.023Z,43.10
2018-12-16T02:23:06.417Z,43.30
2018-12-16T02:23:39.775Z,42.98
2018-12-16T02:24:13.102Z,39.05
2018-12-16T02:24:46.427Z,36.88
2018-12-16T02:25:19.892Z,43.35
2018-12-16T02:25:53.223Z,44.00
2018-12-16T02:26:26.504Z,48.33
2018-12-16T02:26:59.835Z,45.30
2018-12-16T02:27:33.250Z,45.48
2018-12-16T02:28:06.646Z,39.40
2018-12-16T02:28:39.980Z,47.33
2018-12-16T02:29:13.347Z,42.67
2018-12-16T02:29:46.681Z,49.23
2018-12-16T02:30:25.727Z,40.17
2018-12-16T02:30:59.083Z,45.90
2018-12-16T02:31:32.432Z,43.13
2018-12-16T02:32:05.780Z,37.73
2018-12-16T02:32:39.107Z,36.53
2018-12-16T02:33:12.465Z,48.05
2018-12-16T02:33:45.854Z,46.63
2018-12-16T02:34:19.186Z,46.13
2018-12-16T02:34:52.674Z,50.95
2018-12-16T02:35:26.142Z,45.85
2018-12-16T02:35:59.461Z,43.50
2018-12-16T02:36:32.800Z,49.58
2018-12-16T02:37:06.153Z,39.92
2018-12-16T02:37:39.442Z,48.63
2018-12-16T02:38:12.779Z,40.52
2018-12-16T02:38:46.129Z,40.67
2018-12-16T02:39:19.476Z,45.98
2018-12-16T02:39:52.934Z,46.90
2018-12-16T02:40:26.269Z,45.08
2018-12-16T02:41:00.751Z,40.95
2018-12-16T02:41:34.207Z,44.42
2018-12-16T02:42:07.534Z,41.35
2018-12-16T02:42:40.850Z,39.53
2018-12-16T02:43:14.212Z,47.38
2018-12-16T02:43:47.617Z,48.85
2018-12-16T02:44:21.075Z,47.73
2018-12-16T02:44:54.528Z,48.90
2018-12-16T02:45:27.887Z,45.58
2018-12-16T02:46:01.311Z,39.05
2018-12-16T02:46:34.695Z,42.27
2018-12-16T02:47:08.063Z,47.70
2018-12-16T02:47:41.440Z,37.38
2018-12-16T02:48:14.798Z,45.65
2018-12-16T02:48:48.202Z,44.38
2018-12-16T02:49:21.567Z,42.20
2018-12-16T02:49:54.904Z,42.13
2018-12-16T02:50:28.229Z,46.00
2018-12-16T02:51:01.556Z,50.12
2018-12-16T02:51:34.966Z,42.00
2018-12-16T02:52:08.398Z,46.23
2018-12-16T02:52:42.279Z,47.15
2018-12-16T02:53:15.682Z,47.88
2018-12-16T02:53:49.081Z,46.45
2018-12-16T02:54:23.519Z,40.12
2018-12-16T02:54:56.855Z,44.60
2018-12-16T02:55:30.192Z,41.98
2018-12-16T02:56:03.770Z,44.40
2018-12-16T02:56:37.129Z,48.20
2018-12-16T02:57:10.486Z,48.42
2018-12-16T02:57:43.841Z,39.38
2018-12-16T02:58:17.205Z,46.35
2018-12-16T02:58:50.678Z,45.30
2018-12-16T02:59:24.030Z,39.50
2018-12-16T02:59:57.360Z,47.60
2018-12-16T03:00:30.696Z,46.83
2018-12-16T03:01:04.168Z,50.28
2018-12-16T03:02:26.078Z,46.10
2018-12-16T03:02:59.480Z,44.33
2018-12-16T03:03:33.057Z,38.83
2018-12-16T03:04:06.488Z,46.05
2018-12-16T03:04:39.858Z,49.83
2018-12-16T03:05:14.409Z,42.40
2018-12-16T03:05:47.834Z,47.53
2018-12-16T03:06:21.262Z,45.08
2018-12-16T03:06:54.603Z,44.25
2018-12-16T03:07:27.894Z,44.88
2018-12-16T03:08:01.229Z,49.42
2018-12-16T03:08:34.532Z,43.63
2018-12-16T03:09:08.142Z,39.88
2018-12-16T03:09:42.566Z,45.03
2018-12-16T03:10:15.901Z,43.05
2018-12-16T03:10:49.211Z,43.02
2018-12-16T03:11:22.600Z,45.25
2018-12-16T03:11:55.945Z,45.35
2018-12-16T03:12:29.378Z,39.75
2018-12-16T03:13:02.692Z,40.35
2018-12-16T03:13:36.087Z,44.67
2018-12-16T03:14:09.424Z,44.98
2018-12-16T03:14:42.752Z,45.40
2018-12-16T03:15:16.166Z,46.50
2018-12-16T03:15:49.620Z,47.62
2018-12-16T03:16:23.075Z,38.30
2018-12-16T03:16:57.749Z,41.30
2018-12-16T03:17:31.068Z,45.95
2018-12-16T03:18:04.410Z,41.88
2018-12-16T03:18:38.963Z,40.98
2018-12-16T03:19:12.366Z,46.05
2018-12-16T03:19:45.734Z,42.73
2018-12-16T03:20:19.061Z,43.20
2018-12-16T03:20:52.359Z,40.75
2018-12-16T03:21:25.659Z,42.80
2018-12-16T03:21:58.980Z,45.15
2018-12-16T03:22:32.364Z,42.70
2018-12-16T03:23:11.936Z,44.30
2018-12-16T03:23:41.029Z,45.40
2018-12-16T03:24:14.794Z,46.13
2018-12-16T03:24:48.221Z,44.18
2018-12-16T03:25:21.713Z,45.63
2018-12-16T03:25:55.322Z,45.60
2018-12-16T03:26:35.635Z,42.30
2018-12-16T03:27:04.007Z,47.17
2018-12-16T03:27:37.605Z,47.95
2018-12-16T03:28:10.923Z,45.92
2018-12-16T03:28:44.235Z,46.10
2018-12-16T03:29:17.564Z,45.58
2018-12-16T03:29:50.850Z,47.15
2018-12-16T03:30:24.191Z,45.23
2018-12-16T03:30:57.594Z,41.55
2018-12-16T03:31:30.930Z,42.35
2018-12-16T03:32:04.402Z,42.45
2018-12-16T03:32:37.732Z,46.23
2018-12-16T03:33:11.080Z,46.18
2018-12-16T03:33:44.445Z,45.05
2018-12-16T03:34:17.791Z,45.10
2018-12-16T03:34:51.094Z,45.67
2018-12-16T03:35:24.499Z,45.20
2018-12-16T03:35:57.821Z,42.30
2018-12-16T03:36:31.171Z,50.67
2018-12-16T03:37:04.660Z,48.30
2018-12-16T03:37:37.983Z,44.95
2018-12-16T03:38:11.341Z,43.20
2018-12-16T03:38:44.737Z,55.38
2018-12-16T03:39:18.040Z,43.33
2018-12-16T03:39:51.368Z,45.48
2018-12-16T03:40:24.798Z,47.83
2018-12-16T03:40:58.341Z,43.13
2018-12-16T03:41:31.686Z,43.82
2018-12-16T03:42:05.043Z,45.40
2018-12-16T03:42:38.415Z,47.05
2018-12-16T03:43:11.767Z,41.37
2018-12-16T03:43:45.133Z,42.88
2018-12-16T03:44:18.504Z,39.75
2018-12-16T03:44:51.838Z,47.27
2018-12-16T03:45:25.175Z,47.35
2018-12-16T03:45:58.505Z,48.73
2018-12-16T03:46:32.570Z,46.02
2018-12-16T03:47:05.931Z,43.20
2018-12-16T03:47:39.253Z,49.35
2018-12-16T03:48:12.558Z,46.40
2018-12-16T03:48:45.879Z,46.63
2018-12-16T03:49:19.182Z,45.40
2018-12-16T03:49:52.616Z,41.80
2018-12-16T03:50:26.018Z,45.35
2018-12-16T03:50:59.331Z,46.77
2018-12-16T03:51:32.631Z,46.45
2018-12-16T03:52:07.055Z,45.38
2018-12-16T03:52:40.510Z,45.98
2018-12-16T03:53:19.660Z,47.38
2018-12-16T03:53:49.375Z,42.93
2018-12-16T03:54:22.682Z,47.93
2018-12-16T03:54:56.009Z,50.33
2018-12-16T03:55:29.437Z,52.35
2018-12-16T03:56:02.779Z,53.00
2018-12-16T03:56:36.093Z,50.80
2018-12-16T03:57:09.442Z,45.67
2018-12-16T03:57:42.766Z,46.92
2018-12-16T03:58:16.111Z,47.70
2018-12-16T03:59:07.162Z,45.17
2018-12-16T03:59:40.692Z,49.15
2018-12-16T04:00:14.010Z,48.15
2018-12-16T04:00:47.340Z,46.35
2018-12-16T04:01:20.676Z,40.98
2018-12-16T04:01:54.129Z,43.87
2018-12-16T04:02:28.563Z,49.42
2018-12-16T04:03:01.847Z,44.88
2018-12-16T04:03:35.305Z,48.20
2018-12-16T04:04:08.698Z,48.28
2018-12-16T04:04:41.993Z,49.50
2018-12-16T04:05:15.325Z,46.10
2018-12-16T04:05:48.674Z,46.45
2018-12-16T04:06:21.966Z,41.15
2018-12-16T04:06:55.418Z,39.85
2018-12-16T04:07:28.837Z,48.70
2018-12-16T04:08:02.177Z,42.25
2018-12-16T04:08:35.491Z,44.80
2018-12-16T04:09:08.845Z,44.58
2018-12-16T04:09:42.129Z,48.73
2018-12-16T04:10:15.443Z,44.93
2018-12-16T04:10:48.771Z,39.53
2018-12-16T04:11:22.095Z,39.98
2018-12-16T04:12:04.173Z,46.85
2018-12-16T04:12:37.507Z,44.33
2018-12-16T04:13:10.897Z,47.43
2018-12-16T04:13:44.233Z,48.33
2018-12-16T04:14:19.606Z,48.20
2018-12-16T04:14:54.976Z,50.58
2018-12-16T04:15:28.356Z,46.37
2018-12-16T04:16:01.667Z,46.08
2018-12-16T04:16:35.025Z,38.67
2018-12-16T04:17:08.371Z,44.63
2018-12-16T04:17:41.833Z,47.80
2018-12-16T04:18:15.157Z,45.28
2018-12-16T04:18:48.482Z,44.65
2018-12-16T04:19:21.847Z,45.38
2018-12-16T04:19:55.148Z,39.65
2018-12-16T04:20:28.427Z,41.63
2018-12-16T04:21:01.754Z,48.68
2018-12-16T04:21:35.090Z,46.25
2018-12-16T04:22:08.419Z,40.67
2018-12-16T04:22:41.733Z,46.37
2018-12-16T04:23:15.025Z,44.38
2018-12-16T04:23:48.333Z,44.58
2018-12-16T04:24:21.683Z,47.40
2018-12-16T04:24:55.021Z,48.70
2018-12-16T04:25:28.470Z,45.80
2018-12-16T04:26:01.777Z,44.50
2018-12-16T04:26:35.104Z,45.00
2018-12-16T04:27:08.437Z,43.85
2018-12-16T04:27:41.770Z,46.48
2018-12-16T04:28:15.268Z,45.35
2018-12-16T04:28:48.566Z,48.05
2018-12-16T04:29:21.867Z,44.15
2018-12-16T04:29:55.187Z,42.53
2018-12-16T04:30:28.488Z,43.95
2018-12-16T04:31:01.810Z,36.65
2018-12-16T04:31:35.113Z,45.58
2018-12-16T04:32:08.428Z,47.83
2018-12-16T04:32:41.786Z,45.67
2018-12-16T04:33:15.292Z,41.30
2018-12-16T04:33:48.605Z,35.45
2018-12-16T04:34:21.951Z,44.00
2018-12-16T04:34:55.233Z,43.80
2018-12-16T04:35:28.536Z,45.40
2018-12-16T04:36:01.859Z,40.30
2018-12-16T04:36:42.113Z,50.12
2018-12-16T04:37:15.425Z,47.50
2018-12-16T04:37:48.743Z,43.50
2018-12-16T04:38:22.068Z,48.55
2018-12-16T04:38:55.413Z,47.27
2018-12-16T04:39:28.780Z,48.38
2018-12-16T04:40:02.257Z,46.02
2018-12-16T04:40:35.729Z,42.40
2018-12-16T04:41:09.026Z,47.88
2018-12-16T04:41:42.342Z,48.05
2018-12-16T04:42:15.646Z,47.53
2018-12-16T04:42:48.953Z,44.63
2018-12-16T04:43:22.254Z,47.13
2018-12-16T04:43:55.596Z,45.73
2018-12-16T04:44:28.954Z,44.63
2018-12-16T04:45:02.277Z,43.75
2018-12-16T04:45:37.191Z,43.78
2018-12-16T04:46:10.592Z,49.20
2018-12-16T04:46:44.024Z,49.60
2018-12-16T04:47:17.400Z,41.25
2018-12-16T04:47:50.743Z,48.87
2018-12-16T04:48:24.083Z,47.75
2018-12-16T04:48:57.385Z,48.15
2018-12-16T04:49:30.713Z,45.05
2018-12-16T04:50:05.409Z,43.80
2018-12-16T04:50:38.970Z,46.50
2018-12-16T04:51:12.399Z,48.08
2018-12-16T04:51:45.728Z,39.50
2018-12-16T04:52:19.093Z,46.28
2018-12-16T04:52:52.443Z,49.50
2018-12-16T04:53:25.758Z,46.60
2018-12-16T04:53:59.101Z,46.42
2018-12-16T04:54:32.439Z,42.40
2018-12-16T04:55:05.958Z,48.52
2018-12-16T04:55:39.280Z,46.75
2018-12-16T04:56:12.602Z,42.45
2018-12-16T04:56:45.903Z,49.55
2018-12-16T04:57:19.231Z,47.35
2018-12-16T04:57:52.562Z,46.90
2018-12-16T04:58:25.950Z,50.33
2018-12-16T04:58:59.270Z,47.20
2018-12-16T04:59:32.626Z,48.40
2018-12-16T05:00:06.095Z,50.12
2018-12-16T05:00:39.419Z,48.20
2018-12-16T05:01:12.724Z,45.08
2018-12-16T05:01:46.046Z,46.23
2018-12-16T05:02:19.390Z,46.45
2018-12-16T05:02:52.720Z,44.65
2018-12-16T05:03:26.042Z,48.23
2018-12-16T05:03:59.432Z,44.88
2018-12-16T05:04:32.763Z,48.15
2018-12-16T05:05:06.427Z,49.45
2018-12-16T05:05:39.782Z,46.50
2018-12-16T05:06:13.170Z,49.38
2018-12-16T05:06:46.511Z,46.35
2018-12-16T05:07:19.854Z,53.68
2018-12-16T05:07:53.390Z,47.73
2018-12-16T05:08:26.718Z,46.88
2018-12-16T05:09:00.052Z,43.25
2018-12-16T05:09:33.401Z,52.67
2018-12-16T05:10:27.713Z,47.20
2018-12-16T05:11:01.056Z,50.50
2018-12-16T05:11:34.780Z,51.68
2018-12-16T05:12:08.098Z,47.90
2018-12-16T05:12:41.401Z,45.83
2018-12-16T05:13:14.818Z,49.05
2018-12-16T05:13:48.205Z,53.70
2018-12-16T05:14:21.513Z,49.80
2018-12-16T05:14:54.894Z,49.88
2018-12-16T05:15:28.217Z,48.38
2018-12-16T05:16:01.626Z,49.53
2018-12-16T05:16:35.008Z,49.45
2018-12-16T05:17:08.502Z,52.58
2018-12-16T05:17:41.850Z,48.95
2018-12-16T05:18:15.213Z,49.23
2018-12-16T05:18:48.534Z,51.02
2018-12-16T05:19:21.880Z,51.90
2018-12-16T05:19:56.159Z,52.98
2018-12-16T05:20:29.451Z,50.85
2018-12-16T05:21:02.754Z,54.23
2018-12-16T05:21:36.096Z,54.13
2018-12-16T05:22:09.422Z,51.33
2018-12-16T05:22:42.818Z,53.25
2018-12-16T05:23:16.114Z,42.95
2018-12-16T05:23:49.446Z,51.05
2018-12-16T05:24:22.780Z,44.85
2018-12-16T05:24:56.132Z,52.38
2018-12-16T05:25:29.457Z,50.98
2018-12-16T05:26:02.918Z,50.95
2018-12-16T05:26:36.282Z,53.40
2018-12-16T05:27:09.618Z,55.55
2018-12-16T05:27:42.957Z,50.10
2018-12-16T05:28:16.289Z,53.08
2018-12-16T05:28:49.616Z,39.20
2018-12-16T05:29:22.955Z,49.00
2018-12-16T05:29:56.358Z,52.00
2018-12-16T05:30:29.690Z,49.03
2018-12-16T05:31:03.056Z,47.15
2018-12-16T05:31:36.400Z,50.60
2018-12-16T05:32:09.742Z,44.40
2018-12-16T05:32:43.130Z,55.20
2018-12-16T05:33:16.444Z,53.28
2018-12-16T05:33:49.755Z,50.58
2018-12-16T05:34:23.103Z,51.40
2018-12-16T05:34:56.462Z,51.23
2018-12-16T05:35:29.806Z,56.20
2018-12-16T05:36:03.146Z,54.55
2018-12-16T05:36:36.447Z,45.95
2018-12-16T05:37:09.774Z,52.25
2018-12-16T05:37:43.124Z,56.37
2018-12-16T05:38:16.439Z,51.13
2018-12-16T05:38:49.808Z,55.78
2018-12-16T05:39:23.248Z,48.80
2018-12-16T05:39:56.582Z,50.40
2018-12-16T05:40:29.948Z,52.58
2018-12-16T05:41:03.355Z,48.15
2018-12-16T05:41:36.699Z,54.15
2018-12-16T05:42:10.026Z,54.13
2018-12-16T05:42:43.462Z,52.35
2018-12-16T05:43:16.804Z,50.35
2018-12-16T05:43:50.157Z,54.58
2018-12-16T05:44:23.475Z,56.83
2018-12-16T05:44:56.794Z,52.33
2018-12-16T05:45:30.233Z,52.43
2018-12-16T05:46:03.651Z,57.73
2018-12-16T05:46:36.968Z,55.00
2018-12-16T05:47:10.327Z,54.20
2018-12-16T05:47:43.674Z,53.42
2018-12-16T05:48:16.975Z,50.45
2018-12-16T05:48:50.278Z,54.13
2018-12-16T05:49:23.576Z,54.23
2018-12-16T05:49:57.078Z,54.83
2018-12-16T05:50:30.428Z,52.33
2018-12-16T05:51:04.005Z,52.85
2018-12-16T05:51:37.300Z,54.77
2018-12-16T05:52:10.618Z,56.33
2018-12-16T05:52:43.981Z,52.98
2018-12-16T05:53:17.316Z,54.70
2018-12-16T05:53:50.635Z,52.40
2018-12-16T05:54:24.022Z,54.60
2018-12-16T05:54:57.356Z,54.77
2018-12-16T05:55:30.739Z,52.70
2018-12-16T05:56:04.057Z,50.17
2018-12-16T05:56:37.436Z,54.65
2018-12-16T05:57:10.781Z,54.35
2018-12-16T05:57:44.108Z,58.80
2018-12-16T05:58:17.450Z,57.08
2018-12-16T05:58:50.780Z,51.23
2018-12-16T05:59:24.110Z,50.95
2018-12-16T05:59:57.521Z,50.03
2018-12-16T06:00:32.379Z,51.65
2018-12-16T06:01:06.100Z,54.13
2018-12-16T06:01:39.407Z,60.50
2018-12-16T06:02:12.766Z,52.08
2018-12-16T06:02:46.089Z,51.42
2018-12-16T06:03:19.438Z,54.53
2018-12-16T06:03:52.806Z,56.48
2018-12-16T06:04:26.206Z,55.88
2018-12-16T06:04:59.595Z,54.58
2018-12-16T06:05:32.932Z,59.58
2018-12-16T06:06:06.398Z,57.17
2018-12-16T06:06:39.756Z,55.95
2018-12-16T06:07:13.125Z,62.33
2018-12-16T06:07:46.527Z,59.38
2018-12-16T06:08:19.839Z,53.73
2018-12-16T06:08:53.126Z,53.42
2018-12-16T06:09:26.450Z,54.98
2018-12-16T06:09:59.812Z,59.03
2018-12-16T06:10:33.144Z,59.65
2018-12-16T06:11:06.595Z,56.02
2018-12-16T06:11:39.928Z,54.38
2018-12-16T06:12:13.233Z,57.95
2018-12-16T06:12:46.563Z,56.02
2018-12-16T06:13:19.896Z,56.70
2018-12-16T06:13:53.215Z,49.00
2018-12-16T06:14:26.619Z,55.80
2018-12-16T06:14:59.959Z,51.13
2018-12-16T06:15:33.423Z,55.63
2018-12-16T06:16:06.784Z,57.48
2018-12-16T06:16:40.121Z,57.83
2018-12-16T06:17:13.475Z,58.05
2018-12-16T06:17:46.809Z,56.53
2018-12-16T06:18:20.137Z,61.13
2018-12-16T06:18:53.469Z,54.20
2018-12-16T06:19:26.783Z,57.73
2018-12-16T06:20:00.089Z,59.05
2018-12-16T06:20:33.590Z,60.38
2018-12-16T06:21:06.918Z,60.67
2018-12-16T06:21:41.265Z,62.13
2018-12-16T06:22:14.559Z,60.48
2018-12-16T06:22:47.898Z,51.83
2018-12-16T06:23:21.394Z,58.38
2018-12-16T06:23:55.693Z,57.50
2018-12-16T06:24:29.481Z,56.88
2018-12-16T06:25:03.094Z,55.88
2018-12-16T06:25:36.387Z,63.30
2018-12-16T06:26:09.701Z,59.40
2018-12-16T06:26:43.065Z,60.12
2018-12-16T06:27:16.391Z,54.95
2018-12-16T06:27:49.779Z,51.50
2018-12-16T06:28:23.073Z,53.63
2018-12-16T06:28:56.671Z,57.83
2018-12-16T06:29:30.035Z,61.05
2018-12-16T06:30:04.413Z,61.83
2018-12-16T06:30:38.069Z,60.05
2018-12-16T06:31:11.391Z,59.60
2018-12-16T06:31:44.738Z,62.10
2018-12-16T06:32:18.043Z,63.25
2018-12-16T06:32:51.378Z,57.50
2018-12-16T06:33:24.727Z,65.12
2018-12-16T06:33:58.053Z,61.75
2018-12-16T06:34:31.399Z,62.70
2018-12-16T06:35:04.917Z,59.33
2018-12-16T06:35:39.566Z,58.83
2018-12-16T06:36:12.873Z,58.13
2018-12-16T06:36:46.333Z,59.73
2018-12-16T06:37:19.643Z,55.63
2018-12-16T06:37:52.930Z,58.98
2018-12-16T06:38:26.253Z,63.45
2018-12-16T06:38:59.609Z,69.58
2018-12-16T06:39:32.943Z,61.02
2018-12-16T06:40:06.430Z,57.60
2018-12-16T06:40:39.764Z,64.17
2018-12-16T06:41:13.189Z,63.00
2018-12-16T06:41:46.501Z,63.63
2018-12-16T06:42:19.812Z,61.00
2018-12-16T06:42:53.130Z,60.17
2018-12-16T06:43:26.441Z,58.42
2018-12-16T06:43:59.797Z,62.13
2018-12-16T06:44:33.239Z,64.60
2018-12-16T06:45:06.751Z,63.60
2018-12-16T06:45:40.076Z,65.30
2018-12-16T06:46:13.433Z,65.26
2018-12-16T06:46:46.765Z,60.75
2018-12-16T06:47:20.107Z,63.65
2018-12-16T06:47:53.465Z,65.30
2018-12-16T06:48:26.789Z,65.62
2018-12-16T06:49:00.127Z,63.28
2018-12-16T06:49:33.459Z,66.37
2018-12-16T06:50:07.490Z,63.35
2018-12-16T06:50:40.808Z,65.65
2018-12-16T06:51:14.144Z,66.25
2018-12-16T06:51:47.451Z,61.00
2018-12-16T06:52:20.783Z,66.47
2018-12-16T06:52:54.086Z,61.83
2018-12-16T06:53:27.423Z,66.82
2018-12-16T06:54:02.594Z,68.15
2018-12-16T06:54:36.114Z,70.25
2018-12-16T06:55:09.693Z,60.50
2018-12-16T06:55:43.465Z,63.95
2018-12-16T06:56:17.048Z,63.98
2018-12-16T06:56:50.355Z,67.17
2018-12-16T06:57:23.676Z,56.15
2018-12-16T06:57:56.995Z,70.12
2018-12-16T06:58:30.319Z,60.92
2018-12-16T06:59:03.799Z,67.85
2018-12-16T06:59:37.133Z,64.47
2018-12-16T07:00:10.623Z,66.72
2018-12-16T07:00:43.963Z,64.17
2018-12-16T07:01:17.317Z,67.42
2018-12-16T07:01:50.769Z,65.35
2018-12-16T07:02:24.093Z,63.78
2018-12-16T07:02:57.625Z,64.17
2018-12-16T07:03:30.965Z,68.12
2018-12-16T07:04:04.318Z,64.53
2018-12-16T07:04:37.806Z,67.10
2018-12-16T07:05:11.183Z,66.12
2018-12-16T07:05:44.514Z,68.90
2018-12-16T07:06:18.368Z,67.67
2018-12-16T07:06:53.165Z,61.45
2018-12-16T07:07:26.731Z,67.78
2018-12-16T07:08:00.086Z,56.48
2018-12-16T07:08:34.594Z,67.05
2018-12-16T07:09:07.930Z,70.47
2018-12-16T07:09:42.399Z,66.02
2018-12-16T07:10:16.064Z,65.83
2018-12-16T07:10:49.409Z,65.97
2018-12-16T07:11:22.777Z,64.87
2018-12-16T07:11:56.209Z,62.53
2018-12-16T07:12:29.663Z,58.42
2018-12-16T07:13:04.255Z,66.30
2018-12-16T07:13:37.614Z,61.40